createdAt,value
2023-04-08T00:00:49.339Z,62.87
2023-04-08T00:03:21.026Z,58.20
2023-04-08T00:05:48.152Z,61.37
2023-04-08T00:08:14.919Z,59.80
2023-04-08T00:10:42.095Z,55.30
2023-04-08T00:13:08.832Z,55.37
2023-04-08T00:15:37.206Z,49.83
2023-04-08T00:18:04.117Z,54.17
2023-04-08T00:20:31.344Z,48.77
2023-04-08T00:22:58.145Z,43.40
2023-04-08T00:25:25.821Z,50.10
2023-04-08T00:27:52.744Z,49.70
2023-04-08T00:30:20.136Z,53.53
2023-04-08T00:32:46.980Z,48.90
2023-04-08T00:35:14.425Z,63.23
2023-04-08T00:37:41.523Z,51.23
2023-04-08T00:40:09.040Z,50.43
2023-04-08T00:42:35.968Z,48.23
2023-04-08T00:45:03.766Z,44.30
2023-04-08T00:47:31.890Z,42.03
2023-04-08T00:49:59.194Z,47.47
2023-04-08T00:52:26.242Z,47.07
2023-04-08T00:54:53.246Z,53.67
2023-04-08T00:57:20.151Z,48.37
2023-04-08T00:59:47.280Z,53.23
2023-04-08T01:02:38.779Z,43.07
2023-04-08T01:05:15.758Z,39.57
2023-04-08T01:07:50.546Z,39.80
2023-04-08T01:10:23.427Z,39.83
2023-04-08T01:12:58.326Z,39.67
2023-04-08T01:15:27.967Z,39.47
2023-04-08T01:17:56.633Z,38.53
2023-04-08T01:20:25.989Z,35.93
2023-04-08T01:23:01.912Z,38.07
2023-04-08T01:25:34.536Z,38.63
2023-04-08T01:28:15.631Z,35.53
2023-04-08T01:30:44.857Z,28.27
2023-04-08T01:33:14.088Z,29.43
2023-04-08T01:35:41.601Z,28.50
2023-04-08T01:38:11.263Z,26.63
2023-04-08T01:40:40.525Z,27.83
2023-04-08T01:43:09.928Z,25.50
2023-04-08T01:45:38.900Z,26.57
2023-04-08T01:48:07.113Z,28.57
2023-04-08T01:50:34.538Z,27.17
2023-04-08T01:53:04.729Z,25.73
2023-04-08T01:55:33.339Z,25.53
2023-04-08T01:58:01.330Z,26.83
2023-04-08T02:00:31.013Z,26.93
2023-04-08T02:02:59.736Z,28.10
2023-04-08T02:05:27.008Z,25.23
2023-04-08T02:07:53.841Z,23.90
2023-04-08T02:10:21.093Z,22.00
2023-04-08T02:12:48.499Z,23.90
2023-04-08T02:15:15.846Z,24.47
2023-04-08T02:17:49.992Z,19.93
2023-04-08T02:20:26.927Z,20.50
2023-04-08T02:23:02.345Z,17.57
2023-04-08T02:25:30.966Z,18.33
2023-04-08T02:28:00.647Z,20.73
2023-04-08T02:30:28.255Z,19.47
2023-04-08T02:32:57.064Z,20.27
2023-04-08T02:35:24.561Z,19.60
2023-04-08T02:37:51.828Z,20.67
2023-04-08T02:40:30.724Z,22.43
2023-04-08T02:42:59.426Z,21.93
2023-04-08T02:45:45.553Z,21.43
2023-04-08T02:48:12.587Z,20.57
2023-04-08T02:50:40.696Z,21.10
2023-04-08T02:53:08.755Z,20.43
2023-04-08T02:55:36.249Z,19.60
2023-04-08T02:58:03.122Z,21.60
2023-04-08T03:00:30.337Z,20.90
2023-04-08T03:02:57.318Z,17.87
2023-04-08T03:05:27.221Z,18.57
2023-04-08T03:07:54.055Z,19.70
2023-04-08T03:10:21.046Z,18.90
2023-04-08T03:12:47.849Z,19.00
2023-04-08T03:15:15.014Z,19.33
2023-04-08T03:17:41.848Z,18.40
2023-04-08T03:20:09.072Z,18.70
2023-04-08T03:22:36.484Z,18.63
2023-04-08T03:25:04.444Z,19.07
2023-04-08T03:27:31.312Z,19.00
2023-04-08T03:29:58.807Z,18.97
2023-04-08T03:32:25.860Z,16.67
2023-04-08T03:34:53.494Z,18.03
2023-04-08T03:37:20.293Z,17.60
2023-04-08T03:39:47.269Z,17.60
2023-04-08T03:42:14.020Z,17.53
2023-04-08T03:44:41.004Z,17.80
2023-04-08T03:47:07.854Z,16.33
2023-04-08T03:49:34.850Z,14.43
2023-04-08T03:52:02.020Z,15.73
2023-04-08T03:54:29.111Z,17.53
2023-04-08T03:56:56.261Z,15.83
2023-04-08T03:59:23.366Z,16.03
2023-04-08T04:01:51.413Z,15.10
2023-04-08T04:04:19.042Z,15.20
2023-04-08T04:06:46.010Z,14.07
2023-04-08T04:09:13.115Z,13.30
2023-04-08T04:11:39.799Z,14.30
2023-04-08T04:14:06.850Z,14.50
2023-04-08T04:16:33.697Z,14.93
2023-04-08T04:19:00.840Z,14.57
2023-04-08T04:21:27.735Z,14.90
2023-04-08T04:23:54.739Z,13.50
2023-04-08T04:26:21.541Z,13.93
2023-04-08T04:28:49.106Z,14.20
2023-04-08T04:31:26.437Z,13.17
2023-04-08T04:33:54.034Z,14.80
2023-04-08T04:36:20.822Z,13.53
2023-04-08T04:38:50.171Z,13.77
2023-04-08T04:41:17.654Z,13.80
2023-04-08T04:43:44.887Z,14.20
2023-04-08T04:46:11.714Z,14.10
2023-04-08T04:48:38.785Z,14.63
2023-04-08T04:51:07.435Z,13.70
2023-04-08T04:53:34.608Z,14.63
2023-04-08T04:56:01.943Z,16.30
2023-04-08T04:58:30.607Z,15.67
2023-04-08T05:00:57.363Z,17.00
2023-04-08T05:03:24.461Z,14.43
2023-04-08T05:05:53.017Z,18.07
2023-04-08T05:08:21.174Z,18.17
2023-04-08T05:10:50.213Z,19.83
2023-04-08T05:13:18.264Z,24.23
2023-04-08T05:15:47.601Z,20.37
2023-04-08T05:18:14.951Z,23.50
2023-04-08T05:20:41.680Z,20.83
2023-04-08T05:23:08.851Z,18.53
2023-04-08T05:25:36.215Z,18.30
2023-04-08T05:28:03.985Z,16.90
2023-04-08T05:30:31.020Z,16.37
2023-04-08T05:33:00.402Z,17.90
2023-04-08T05:35:28.102Z,18.97
2023-04-08T05:37:55.366Z,18.37
2023-04-08T05:40:22.190Z,18.67
2023-04-08T05:42:49.259Z,17.83
2023-04-08T05:45:16.349Z,16.17
2023-04-08T05:47:43.531Z,15.47
2023-04-08T05:50:11.412Z,14.30
2023-04-08T05:52:45.753Z,15.10
2023-04-08T05:55:13.898Z,15.13
2023-04-08T05:57:41.571Z,13.83
2023-04-08T06:00:10.528Z,13.93
2023-04-08T06:02:38.466Z,13.63
2023-04-08T06:05:06.553Z,12.47
2023-04-08T06:07:34.357Z,12.73
2023-04-08T06:10:01.287Z,12.30
2023-04-08T06:12:28.391Z,12.17
2023-04-08T06:14:58.537Z,12.27
2023-04-08T06:17:26.599Z,12.90
2023-04-08T06:19:53.312Z,13.67
2023-04-08T06:22:20.286Z,12.40
2023-04-08T06:24:48.131Z,12.33
2023-04-08T06:27:15.317Z,12.50
2023-04-08T06:29:43.085Z,10.50
2023-04-08T06:32:10.897Z,11.40
2023-04-08T06:34:38.147Z,11.30
2023-04-08T06:37:06.406Z,10.80
2023-04-08T06:39:33.926Z,10.53
2023-04-08T06:42:01.623Z,11.48
2023-04-08T06:44:38.593Z,11.18
2023-04-08T06:47:05.872Z,10.20
2023-04-08T06:49:32.614Z,10.15
2023-04-08T06:51:59.825Z,10.65
2023-04-08T06:54:26.641Z,10.98
2023-04-08T06:56:53.659Z,10.43
2023-04-08T06:59:20.521Z,12.20
2023-04-08T07:01:47.708Z,12.25
2023-04-08T07:04:14.622Z,13.23
2023-04-08T07:06:41.590Z,13.52
2023-04-08T07:09:09.081Z,13.65
2023-04-08T07:11:36.152Z,14.02
2023-04-08T07:14:02.882Z,16.88
2023-04-08T07:16:30.021Z,17.33
2023-04-08T07:18:57.051Z,17.00
2023-04-08T07:21:24.170Z,16.13
2023-04-08T07:23:51.038Z,16.53
2023-04-08T07:26:18.585Z,15.17
2023-04-08T07:28:45.388Z,16.47
2023-04-08T07:31:15.160Z,16.77
2023-04-08T07:33:42.760Z,17.33
2023-04-08T07:36:11.593Z,17.40
2023-04-08T07:38:39.105Z,17.43
2023-04-08T07:41:06.316Z,18.90
2023-04-08T07:43:37.297Z,18.47
2023-04-08T07:46:05.758Z,19.13
2023-04-08T07:48:34.207Z,19.07
2023-04-08T07:51:08.128Z,19.40
2023-04-08T07:53:37.956Z,17.70
2023-04-08T07:56:15.073Z,16.77
2023-04-08T07:58:42.371Z,17.30
2023-04-08T08:01:23.084Z,17.20
2023-04-08T08:03:52.147Z,17.07
2023-04-08T08:06:19.806Z,18.57
2023-04-08T08:08:46.959Z,18.33
2023-04-08T08:11:14.177Z,18.50
2023-04-08T08:13:41.193Z,19.53
2023-04-08T08:16:11.385Z,18.93
2023-04-08T08:18:40.152Z,17.57
2023-04-08T08:21:08.553Z,16.83
2023-04-08T08:23:35.297Z,14.43
2023-04-08T08:26:03.796Z,16.77
2023-04-08T08:28:30.554Z,14.67
2023-04-08T08:30:57.725Z,15.23
2023-04-08T08:33:25.430Z,15.70
2023-04-08T08:35:52.561Z,16.13
2023-04-08T08:38:19.413Z,15.83
2023-04-08T08:40:46.505Z,16.10
2023-04-08T08:43:14.167Z,15.20
2023-04-08T08:45:42.114Z,15.67
2023-04-08T08:48:09.340Z,16.80
2023-04-08T08:50:40.395Z,15.50
2023-04-08T08:53:07.576Z,14.80
2023-04-08T08:55:53.244Z,14.03
2023-04-08T08:58:21.504Z,13.90
2023-04-08T09:00:48.457Z,13.43
2023-04-08T09:03:19.956Z,13.30
2023-04-08T09:05:56.183Z,13.53
2023-04-08T09:08:34.059Z,13.93
2023-04-08T09:11:19.326Z,12.93
2023-04-08T09:13:46.672Z,12.13
2023-04-08T09:16:17.975Z,12.25
2023-04-08T09:18:47.244Z,12.48
2023-04-08T09:21:17.010Z,12.45
2023-04-08T09:23:49.165Z,12.23
2023-04-08T09:26:19.699Z,12.80
2023-04-08T09:29:01.107Z,13.27
2023-04-08T09:31:38.101Z,12.10
2023-04-08T09:34:17.117Z,11.77
2023-04-08T09:36:44.668Z,11.65
2023-04-08T09:39:11.555Z,11.48
2023-04-08T09:41:39.671Z,12.43
2023-04-08T09:44:08.561Z,12.27
2023-04-08T09:46:51.040Z,13.05
2023-04-08T09:49:29.706Z,12.18
2023-04-08T09:52:20.825Z,11.38
2023-04-08T09:55:08.590Z,11.18
2023-04-08T09:57:44.543Z,11.05
2023-04-08T10:00:16.865Z,11.48
2023-04-08T10:03:01.106Z,11.40
2023-04-08T10:05:28.211Z,11.27
2023-04-08T10:07:56.829Z,11.52
2023-04-08T10:10:24.656Z,12.13
2023-04-08T10:12:52.011Z,11.65
2023-04-08T10:15:27.633Z,11.85
2023-04-08T10:17:56.509Z,12.43
2023-04-08T10:20:38.652Z,11.95
2023-04-08T10:23:08.893Z,11.80
2023-04-08T10:25:36.452Z,11.90
2023-04-08T10:28:25.006Z,10.75
2023-04-08T10:30:56.790Z,11.77
2023-04-08T10:33:31.591Z,10.98
2023-04-08T10:36:02.805Z,10.90
2023-04-08T10:38:30.474Z,10.30
2023-04-08T10:40:57.167Z,12.75
2023-04-08T10:43:24.215Z,11.63
2023-04-08T10:45:53.644Z,11.40
2023-04-08T10:48:22.970Z,10.75
2023-04-08T10:50:57.172Z,10.23
2023-04-08T10:53:30.798Z,11.45
2023-04-08T10:56:15.732Z,11.30
2023-04-08T10:58:55.063Z,10.05
2023-04-08T11:01:22.576Z,10.88
2023-04-08T11:03:49.899Z,11.10
2023-04-08T11:06:17.679Z,11.55
2023-04-08T11:08:44.888Z,9.65
2023-04-08T11:11:12.035Z,10.20
2023-04-08T11:13:52.880Z,10.30
2023-04-08T11:16:21.788Z,10.05
2023-04-08T11:18:50.817Z,11.85
2023-04-08T11:21:17.632Z,11.63
2023-04-08T11:23:44.856Z,11.80
2023-04-08T11:26:11.918Z,10.10
2023-04-08T11:28:40.390Z,11.57
2023-04-08T11:31:08.899Z,11.25
2023-04-08T11:33:36.391Z,10.13
2023-04-08T11:36:08.378Z,10.52
2023-04-08T11:38:39.128Z,10.40
2023-04-08T11:41:05.956Z,9.88
2023-04-08T11:43:33.028Z,9.95
2023-04-08T11:46:00.325Z,11.35
2023-04-08T11:48:28.800Z,10.82
2023-04-08T11:51:09.186Z,10.20
2023-04-08T11:53:37.835Z,10.43
2023-04-08T11:56:18.957Z,10.00
2023-04-08T11:58:46.725Z,9.82
2023-04-08T12:01:14.077Z,9.98
2023-04-08T12:03:54.999Z,10.88
2023-04-08T12:06:22.160Z,11.82
2023-04-08T12:08:49.712Z,11.85
2023-04-08T12:11:19.657Z,11.18
2023-04-08T12:13:49.885Z,10.55
2023-04-08T12:16:17.521Z,10.48
2023-04-08T12:18:44.837Z,10.70
2023-04-08T12:21:11.749Z,10.45
2023-04-08T12:23:38.805Z,10.05
2023-04-08T12:26:05.750Z,9.77
2023-04-08T12:28:35.193Z,10.00
2023-04-08T12:31:02.434Z,10.90
2023-04-08T12:33:29.996Z,11.30
2023-04-08T12:35:59.130Z,10.27
2023-04-08T12:38:27.153Z,9.80
2023-04-08T12:40:55.301Z,11.00
2023-04-08T12:43:23.761Z,9.77
2023-04-08T12:45:51.193Z,10.95
2023-04-08T12:48:18.448Z,10.25
2023-04-08T12:50:45.450Z,10.85
2023-04-08T12:53:12.510Z,9.77
2023-04-08T12:55:39.545Z,10.70
2023-04-08T12:58:06.717Z,9.70
2023-04-08T13:00:33.624Z,11.30
2023-04-08T13:03:00.885Z,10.77
2023-04-08T13:05:42.042Z,10.57
2023-04-08T13:08:12.021Z,10.52
2023-04-08T13:10:38.877Z,10.25
2023-04-08T13:13:06.640Z,10.88
2023-04-08T13:15:33.335Z,9.13
2023-04-08T13:18:00.790Z,10.48
2023-04-08T13:20:28.204Z,9.95
2023-04-08T13:22:55.308Z,10.13
2023-04-08T13:25:22.224Z,9.48
2023-04-08T13:27:49.245Z,8.38
2023-04-08T13:30:16.482Z,8.07
2023-04-08T13:32:43.593Z,8.45
2023-04-08T13:35:10.672Z,8.57
2023-04-08T13:37:37.893Z,8.07
2023-04-08T13:40:05.314Z,9.48
2023-04-08T13:42:32.879Z,8.43
2023-04-08T13:45:00.117Z,9.23
2023-04-08T13:47:27.520Z,8.45
2023-04-08T13:49:54.590Z,8.95
2023-04-08T13:52:21.812Z,9.43
2023-04-08T13:54:48.567Z,9.77
2023-04-08T13:57:15.742Z,8.60
2023-04-08T13:59:44.417Z,8.77
2023-04-08T14:02:12.993Z,9.10
2023-04-08T14:04:40.416Z,8.35
2023-04-08T14:07:07.619Z,8.63
2023-04-08T14:09:34.336Z,8.10
2023-04-08T14:12:02.291Z,8.27
2023-04-08T14:14:29.077Z,8.57
2023-04-08T14:16:56.208Z,8.27
2023-04-08T14:19:23.305Z,9.00
2023-04-08T14:21:50.496Z,7.65
2023-04-08T14:24:17.359Z,8.40
2023-04-08T14:26:44.343Z,8.02
2023-04-08T14:29:11.797Z,7.90
2023-04-08T14:31:38.938Z,7.70
2023-04-08T14:34:05.752Z,7.68
2023-04-08T14:36:32.838Z,7.45
2023-04-08T14:39:00.134Z,7.78
2023-04-08T14:41:27.371Z,7.80
2023-04-08T14:43:54.407Z,7.05
2023-04-08T14:46:21.787Z,7.70
2023-04-08T14:48:48.737Z,8.20
2023-04-08T14:51:15.912Z,8.25
2023-04-08T14:53:42.769Z,7.65
2023-04-08T14:56:10.184Z,7.30
2023-04-08T14:58:37.021Z,7.82
2023-04-08T15:01:04.764Z,8.80
2023-04-08T15:03:31.778Z,8.20
2023-04-08T15:05:59.745Z,7.50
2023-04-08T15:08:26.684Z,7.72
2023-04-08T15:10:53.888Z,8.35
2023-04-08T15:13:20.771Z,7.72
2023-04-08T15:15:47.923Z,9.25
2023-04-08T15:18:14.714Z,8.18
2023-04-08T15:20:41.918Z,8.90
2023-04-08T15:23:08.914Z,7.25
2023-04-08T15:25:36.134Z,7.75
2023-04-08T15:28:03.504Z,7.68
2023-04-08T15:30:35.254Z,8.30
2023-04-08T15:33:05.630Z,8.40
2023-04-08T15:35:33.570Z,7.85
2023-04-08T15:38:00.829Z,8.05
2023-04-08T15:40:28.161Z,8.43
2023-04-08T15:42:54.893Z,7.85
2023-04-08T15:45:22.266Z,7.57
2023-04-08T15:47:49.286Z,7.70
2023-04-08T15:50:17.530Z,7.80
2023-04-08T15:52:45.245Z,8.13
2023-04-08T15:55:12.446Z,8.40
2023-04-08T15:57:39.384Z,8.30
2023-04-08T16:00:08.392Z,7.43
2023-04-08T16:02:39.719Z,7.75
2023-04-08T16:05:07.680Z,8.68
2023-04-08T16:07:34.503Z,8.00
2023-04-08T16:10:01.655Z,8.75
2023-04-08T16:12:28.866Z,8.30
2023-04-08T16:14:55.969Z,8.40
2023-04-08T16:17:23.130Z,8.20
2023-04-08T16:19:51.692Z,8.10
2023-04-08T16:22:18.931Z,8.82
2023-04-08T16:24:46.181Z,8.23
2023-04-08T16:27:12.978Z,7.68
2023-04-08T16:29:40.557Z,7.72
2023-04-08T16:32:07.367Z,8.75
2023-04-08T16:34:34.611Z,9.55
2023-04-08T16:37:01.358Z,8.52
2023-04-08T16:39:28.479Z,8.70
2023-04-08T16:41:55.199Z,9.43
2023-04-08T16:44:22.194Z,9.23
2023-04-08T16:46:48.956Z,9.20
2023-04-08T16:49:18.133Z,10.85
2023-04-08T16:51:45.136Z,8.48
2023-04-08T16:54:12.217Z,10.65
2023-04-08T16:56:44.169Z,9.55
2023-04-08T16:59:12.686Z,10.20
2023-04-08T17:01:39.499Z,10.27
2023-04-08T17:04:06.745Z,10.57
2023-04-08T17:06:35.705Z,11.90
2023-04-08T17:09:03.988Z,10.65
2023-04-08T17:11:31.159Z,10.93
2023-04-08T17:13:58.200Z,11.33
2023-04-08T17:16:25.412Z,11.18
2023-04-08T17:18:52.559Z,10.63
2023-04-08T17:21:20.176Z,11.50
2023-04-08T17:23:47.325Z,10.87
2023-04-08T17:26:14.104Z,9.83
2023-04-08T17:28:41.195Z,9.97
2023-04-08T17:31:08.004Z,9.90
2023-04-08T17:33:34.757Z,9.50
2023-04-08T17:36:02.464Z,9.73
2023-04-08T17:38:29.578Z,10.00
2023-04-08T17:40:56.682Z,11.07
2023-04-08T17:43:23.532Z,11.37
2023-04-08T17:45:51.581Z,11.73
2023-04-08T17:48:18.752Z,12.07
2023-04-08T17:50:45.896Z,11.40
2023-04-08T17:53:12.707Z,11.13
2023-04-08T17:55:39.713Z,11.63
2023-04-08T17:58:06.454Z,11.53
2023-04-08T18:00:33.640Z,12.90
2023-04-08T18:03:00.419Z,14.60
2023-04-08T18:05:28.918Z,13.53
2023-04-08T18:07:55.875Z,13.10
2023-04-08T18:10:24.533Z,12.30
2023-04-08T18:13:00.546Z,12.57
2023-04-08T18:15:38.366Z,11.57
2023-04-08T18:18:05.517Z,12.20
2023-04-08T18:20:36.722Z,12.33
2023-04-08T18:23:04.414Z,12.13
2023-04-08T18:25:32.347Z,12.90
2023-04-08T18:27:59.562Z,13.33
2023-04-08T18:30:27.026Z,13.40
2023-04-08T18:32:56.911Z,13.27
2023-04-08T18:35:25.424Z,14.47
2023-04-08T18:37:52.151Z,13.00
2023-04-08T18:40:19.257Z,14.60
2023-04-08T18:42:45.949Z,13.70
2023-04-08T18:45:13.021Z,13.47
2023-04-08T18:47:40.028Z,14.43
2023-04-08T18:50:07.803Z,13.40
2023-04-08T18:52:34.813Z,12.50
2023-04-08T18:55:02.626Z,13.23
2023-04-08T18:57:29.633Z,14.97
2023-04-08T18:59:56.726Z,13.90
2023-04-08T19:02:23.482Z,15.67
2023-04-08T19:04:50.796Z,21.23
2023-04-08T19:07:17.845Z,18.87
2023-04-08T19:09:44.911Z,17.30
2023-04-08T19:12:11.654Z,17.07
2023-04-08T19:14:39.567Z,15.80
2023-04-08T19:17:06.397Z,15.93
2023-04-08T19:19:33.505Z,16.33
2023-04-08T19:22:02.758Z,13.97
2023-04-08T19:24:29.897Z,14.00
2023-04-08T19:26:56.605Z,14.33
2023-04-08T19:29:24.485Z,14.30
2023-04-08T19:31:51.328Z,14.87
2023-04-08T19:34:18.341Z,15.23
2023-04-08T19:36:45.135Z,15.93
2023-04-08T19:39:12.170Z,16.10
2023-04-08T19:41:38.881Z,16.13
2023-04-08T19:44:05.956Z,18.33
2023-04-08T19:46:32.865Z,16.80
2023-04-08T19:49:00.305Z,18.57
2023-04-08T19:51:29.284Z,18.07
2023-04-08T19:53:57.097Z,19.43
2023-04-08T19:56:23.837Z,18.53
2023-04-08T19:58:51.140Z,18.30
2023-04-08T20:01:18.300Z,16.50
2023-04-08T20:03:50.517Z,18.50
2023-04-08T20:06:18.368Z,15.97
2023-04-08T20:08:46.286Z,16.60
2023-04-08T20:11:13.106Z,16.43
2023-04-08T20:13:40.163Z,16.70
2023-04-08T20:16:07.483Z,15.67
2023-04-08T20:18:34.499Z,18.20
2023-04-08T20:21:01.327Z,17.80
2023-04-08T20:23:28.661Z,18.13
2023-04-08T20:25:56.616Z,18.37
2023-04-08T20:28:23.861Z,18.20
2023-04-08T20:30:51.662Z,17.30
2023-04-08T20:33:19.202Z,18.13
2023-04-08T20:35:46.785Z,18.13
2023-04-08T20:38:14.629Z,19.43
2023-04-08T20:40:45.597Z,19.00
2023-04-08T20:43:12.681Z,19.47
2023-04-08T20:45:39.480Z,21.23
2023-04-08T20:48:07.501Z,18.63
2023-04-08T20:50:34.883Z,20.77
2023-04-08T20:53:01.879Z,20.97
2023-04-08T20:55:28.703Z,20.87
2023-04-08T20:57:55.771Z,21.13
2023-04-08T21:00:22.600Z,21.73
2023-04-08T21:02:50.973Z,20.93
2023-04-08T21:05:17.905Z,23.37
2023-04-08T21:07:45.126Z,23.17
2023-04-08T21:10:14.811Z,24.37
2023-04-08T21:12:41.793Z,27.03
2023-04-08T21:15:09.348Z,38.50
2023-04-08T21:17:36.873Z,61.00
2023-04-08T21:20:04.548Z,50.73
2023-04-08T21:22:32.781Z,34.53
2023-04-08T21:24:59.580Z,29.83
2023-04-08T21:27:28.604Z,30.30
2023-04-08T21:29:55.551Z,29.80
2023-04-08T21:32:25.891Z,30.47
2023-04-08T21:34:54.160Z,33.37
2023-04-08T21:37:22.657Z,30.83
2023-04-08T21:39:50.077Z,29.60
2023-04-08T21:42:17.097Z,29.63
2023-04-08T21:44:43.945Z,31.13
2023-04-08T21:47:10.986Z,28.90
2023-04-08T21:49:37.792Z,29.27
2023-04-08T21:52:05.187Z,30.10
2023-04-08T21:54:31.925Z,28.10
2023-04-08T21:56:58.936Z,28.17
2023-04-08T21:59:25.985Z,28.40
2023-04-08T22:01:53.225Z,29.10
2023-04-08T22:04:20.120Z,29.97
2023-04-08T22:06:49.564Z,29.87
2023-04-08T22:09:16.914Z,32.20
2023-04-08T22:11:43.974Z,32.30
2023-04-08T22:14:10.780Z,31.10
2023-04-08T22:16:38.366Z,31.13
2023-04-08T22:19:05.529Z,32.43
2023-04-08T22:21:32.867Z,32.77
2023-04-08T22:23:59.639Z,37.90
2023-04-08T22:26:27.578Z,39.47
2023-04-08T22:28:54.785Z,39.30
2023-04-08T22:31:22.143Z,31.40
2023-04-08T22:33:48.957Z,34.77
2023-04-08T22:36:16.039Z,35.97
2023-04-08T22:38:42.850Z,34.90
2023-04-08T22:41:19.850Z,36.47
2023-04-08T22:43:46.941Z,39.73
2023-04-08T22:46:14.491Z,50.57
2023-04-08T22:48:41.854Z,49.93
2023-04-08T22:51:10.033Z,46.67
2023-04-08T22:53:37.738Z,42.60
2023-04-08T22:56:05.329Z,34.07
2023-04-08T22:58:32.254Z,30.80
2023-04-08T23:00:59.263Z,30.53
2023-04-08T23:03:26.432Z,31.90
2023-04-08T23:05:53.431Z,35.27
2023-04-08T23:08:20.169Z,30.83
2023-04-08T23:10:47.210Z,32.67
2023-04-08T23:13:14.322Z,32.63
2023-04-08T23:15:41.645Z,29.93
2023-04-08T23:18:08.440Z,30.20
2023-04-08T23:20:35.911Z,32.37
2023-04-08T23:23:03.447Z,33.17
2023-04-08T23:25:30.761Z,31.17
2023-04-08T23:27:57.547Z,31.40
2023-04-08T23:30:24.566Z,29.23
2023-04-08T23:32:51.392Z,30.47
2023-04-08T23:35:18.525Z,33.00
2023-04-08T23:37:45.473Z,35.80
2023-04-08T23:40:12.633Z,32.50
2023-04-08T23:42:39.433Z,30.37
2023-04-08T23:45:06.811Z,33.77
2023-04-08T23:47:33.647Z,33.57
2023-04-08T23:50:01.152Z,33.63
2023-04-08T23:52:27.968Z,33.43
2023-04-08T23:54:54.979Z,36.63
2023-04-08T23:57:21.718Z,37.23
2023-04-08T23:59:48.739Z,37.33
